Aviation Digital Data Service (ADDS)

Output produced by METARs form (2225 UTC 24 March 2019)
found at http://www.aviationweather.gov/metar/data/
 
KGBD 242040Z 2421/2518 33012KT P6SM SCT020 
     FM250200 02008KT P6SM BKN150 
     FM251200 36007KT P6SM BKN010 
     FM251500 02007KT P6SM OVC023
       
KGCC 242003Z 2420/2518 12009KT P6SM OVC016 
     TEMPO 2422/2502 4SM -RA BR OVC009 
     FM250600 16010G20KT 2SM -RA BR OVC009
       
KGCK 242106Z 2421/2518 02010KT P6SM SCT030 SCT250 
     FM250600 04008KT P6SM OVC090 
     FM250900 04008KT P6SM OVC025 
     FM251200 07008KT 5SM BR OVC010 
     FM251500 VRB06KT P6SM OVC020
       
KGCN 241723Z 2418/2518 21010KT P6SM FEW250 
     FM250200 VRB03KT P6SM SCT250
       
KGDV 241731Z 2418/2518 09012KT 5SM BR VCSH OVC008 
     FM242000 09012KT P6SM VCSH OVC010 
     FM250300 09010KT 6SM BR OVC010 
     PROB30 2503/2506 4SM -RA OVC008 
     FM250600 09008KT 4SM BR OVC009 
     PROB30 2507/2513 4SM -FZRASN OVC006 
     FM251500 VRB05KT 4SM -RA OVC007 
     PROB30 2515/2517 4SM -SNRA OVC002
       
KGEG 242200Z 2422/2518 18005KT P6SM -RA SCT008 OVC012 
     FM250500 19006KT P6SM VCSH SCT020 OVC045 
     FM251200 11005KT P6SM BKN050 BKN100
       
TAF AMD KGFA 2421/2601 24009KT 0800 FG OVC002 QNH3014INS 
     BECMG 2501/2502 VRB06KT 3600 -SHRA OVC002 610605 QNH3017INS 
     BECMG 2503/2504 02009KT 6000 -SHRA OVC002 610609 QNH3019INS 
     BECMG 2514/2515 23015KT 9999 NSW SCT006 SCT030 QNH3000INS TX11/2519Z
TN01/2506Z
       
KGFK 241739Z 2418/2518 01020KT P6SM SKC 
     FM242000 02014KT P6SM FEW180 
     FM251000 VRB04KT 5SM BR FEW250
       
KGFL 241722Z 2418/2518 23011KT P6SM SCT250 
     FM250000 26006KT P6SM BKN040 BKN200 
     FM250400 33004KT P6SM OVC030 
     FM250900 36005KT P6SM SCT250 
     FM251200 34007KT P6SM SKC
       
KGGG 241726Z 2418/2518 21012G18KT P6SM BKN025 OVC040 
     TEMPO 2420/2422 BKN040 
     FM242200 21012G18KT P6SM BKN040 
     TEMPO 2503/2506 BKN015 
     FM250600 20012KT P6SM VCTS OVC015CB 
     TEMPO 2508/2512 VRB20G40KT 2SM +TSRA BR OVC008CB 
     FM251300 31010KT P6SM VCTS BKN015CB BKN250 
     FM251500 34010G16KT P6SM SCT030 SCT250
       
KGGW 241731Z 2418/2518 09016G24KT 5SM -FZRA OVC007 
     FM242000 09015KT 5SM -RA OVC006 
     TEMPO 2421/2423 2SM -SNRA OVC005 
     FM250000 09014KT 3SM -SNRA OVC008 
     FM250900 09012KT 2SM -SNRA OVC007
       
KGJT 241824Z 2418/2518 14010KT P6SM VCTS SCT050CB BKN070 
     TEMPO 2418/2420 -SHRA BKN015 OVC040 
     FM242000 30012G20KT P6SM VCTS SCT060CB BKN070 
     TEMPO 2420/2424 4SM -TSRA BKN040CB OVC060 
     FM250000 28013G21KT P6SM VCSH SCT080 BKN250 
     FM250300 05007KT P6SM FEW080 SCT250 
     FM251000 10005KT P6SM SKC
       
KGKY 242100Z 2421/2518 19012KT P6SM VCSH SCT040 BKN250 
     FM250100 21008KT P6SM VCTS BKN050CB 
     TEMPO 2502/2504 34020G30KT 2SM TSRA BKN028CB 
     FM250430 34009KT P6SM SCT040 BKN080 
     FM250900 02011KT P6SM SCT100 BKN250 
     FM251500 36013KT P6SM SKC
       
KGLD 242118Z 2421/2518 02006KT P6SM BKN035 
     FM250000 09007KT P6SM BKN060 
     FM250700 12006KT P6SM VCSH OVC008 
     FM250900 VRB05KT 3SM -RA BR OVC010 
     FM251500 16006KT P6SM OVC009
       
KGLH 241720Z 2418/2518 18008KT P6SM SCT030 BKN050 
     FM250900 22008KT 4SM RA BR BKN015 OVC025 
     FM251400 27007KT P6SM OVC007 
     FM251700 32010KT P6SM BKN012 OVC020
       
TAF COR KGLS 241733Z 2418/2518 16011KT P6SM SCT025 OVC050 
     FM242000 15011KT P6SM OVC060 
     FM250300 16009KT 6SM BR SCT007 BKN015 
     FM250800 18007KT 5SM BR BKN007 OVC012 
     FM251000 19005KT 2SM BR OVC003 
     FM251500 21007KT 4SM BR OVC006 
     FM251700 24008KT 6SM BR OVC010
       
KGMU 241734Z 2418/2518 21009G16KT P6SM FEW250 
     FM242300 21008KT P6SM SCT200 
     FM250500 20003KT P6SM BKN120 
     FM251000 21004KT P6SM BKN060 
     FM251500 23007KT P6SM BKN080 
     PROB30 2516/2518 4SM -SHRA BR OVC025
       
KGNV 241726Z 2418/2518 14010KT P6SM FEW050 
     FM242300 12004KT P6SM FEW050 SCT250 
     FM250700 00000KT P6SM SCT060 SCT250 
     FM251300 21004KT P6SM SCT030 BKN060
       
KGON 241950Z 2420/2518 24013G20KT P6SM BKN200 
     FM242300 25010KT P6SM BKN120 
     FM250200 26006KT P6SM OVC100 
     FM250600 VRB04KT P6SM OVC100 
     FM251100 34008KT P6SM FEW035 BKN060
       
KGPT 241720Z 2418/2518 16010KT P6SM SCT030 
     FM251300 00000KT P6SM SCT002 BKN150 
     FM251700 23005KT P6SM SCT070
       
KGRB 242024Z 2420/2518 05015G22KT P6SM SCT040 BKN120 
     TEMPO 2420/2424 BKN040 
     FM250000 03012KT P6SM BKN050 
     FM250200 02011KT P6SM SKC 
     FM250800 02006KT P6SM SKC 
     FM251600 36007KT P6SM SKC
       
TAF KGRF 242103Z 2421/2603 21009KT 9999 SCT040 BKN060 QNH3018INS 
     BECMG 2502/2503 VRB06KT 9999 FEW020 QNH3018INS 
     BECMG 2506/2507 03006KT 9999 FEW050 QNH3016INS 
     BECMG 2600/2601 19009KT 9000 -RA BKN030 OVC040 QNH2979INS TX14/2500Z
TN06/2513Z
       
KGRI 241743Z 2418/2518 01012KT P6SM BKN015 BKN040 
     FM242200 36011KT P6SM OVC020 
     FM250200 01009KT P6SM BKN050 
     FM251000 02007KT P6SM OVC007
       
TAF KGRK 241600Z 2416/2522 18010G15KT 9999 OVC016 QNH3009INS 
     TEMPO 2416/2420 OVC014 
     BECMG 2419/2420 18010G15KT 9999 BKN040 QNH3002INS 
     BECMG 2420/2421 18009KT 9999 SCT040 QNH3000INS 
     BECMG 2508/2509 24005KT 4800 BR OVC004 QNH3004INS 
     BECMG 2519/2520 03009KT 9999 NSW SCT035 QNH3018INS TX27/2421Z TN17/2513Z
       
KGRR 241740Z 2418/2518 28008KT P6SM BKN100 
     FM242300 33007KT P6SM OVC040 
     FM250300 04011KT P6SM OVC025 
     FM250800 05010KT P6SM SCT035
       
TAF KGSB 242000Z 2420/2602 22010G12KT 9999 SCT200 QNH3013INS 
     BECMG 2502/2503 19010G12KT 9999 BKN160 QNH3006INS 
     BECMG 2506/2507 21010KT 9999 BKN040 BKN160 QNH2996INS 
     BECMG 2517/2518 24012G18KT 9000 -RA OVC030 QNH2990INS TX25/2519Z TN09/2511Z
LAST NO AMDS AFT 2420 NEXT 2504
       
KGSO 241956Z 2420/2518 22010G15KT P6SM SKC 
     FM250000 20010KT P6SM BKN250 
     FM251000 VRB03KT P6SM BKN035
       
KGSP 241734Z 2418/2518 21010G17KT P6SM FEW250 
     FM250000 20004KT P6SM BKN120 
     FM250100 20004KT P6SM SCT120 
     FM250400 21003KT P6SM BKN120 
     PROB30 2516/2518 4SM -SHRA BR OVC025
       
TAF KGTB 241700Z 2417/2523 24009KT 9999 SCT020 QNH2996INS 
     TEMPO 2418/2421 25012G18KT 
     BECMG 2420/2421 24010G15KT 9999 BKN020 620203 QNH2996INS 
     BECMG 2422/2423 25006KT 9999 OVC020 620203 QNH2997INS 
     BECMG 2500/2501 VRB06KT 4800 -SN OVC010 620107 QNH3001INS 
     BECMG 2503/2505 35010G15KT 9999 NSW SCT015 QNH3009INS TX06/2420Z
TNM06/2508Z
       
KGTF 242108Z 2421/2518 30006KT 1/4SM FG VV002 
     FM242300 VRB05KT 1/2SM FG OVC003 
     FM250500 VRB03KT 1/4SM FG VV002 
     FM251200 20005KT 1SM BR BKN003 OVC010 
     FM251400 20008KT P6SM SCT025 BKN050
       
KGTR 241720Z 2418/2518 18007KT P6SM BKN090 
     FM250100 17003KT P6SM SCT030 OVC050 
     FM251500 24008KT P6SM VCSH BKN015 OVC025
       
KGUC 242042Z 2421/2518 33007KT P6SM VCSH BKN011 
     TEMPO 2421/2422 4SM -SN BR SCT005 OVC010 
     FM242200 26010G20KT P6SM VCTS SCT012 SCT035CB BKN060 
     TEMPO 2422/2424 3SM -TSRA BKN025CB OVC060 
     FM250200 30011KT P6SM SCT045 BKN090 
     FM250500 VRB03KT P6SM FEW080 SCT150
       
KGUP 241725Z 2418/2518 25011KT P6SM FEW070 
     FM241900 26015G23KT P6SM SKC 
     FM250130 VRB03KT P6SM SKC
       
TAF KGUS 241900Z 2419/2601 22009KT 8000 -RA BKN020 OVC030 620505 QNH3003INS 
     BECMG 2506/2507 04006KT 9000 -RA OVC005 620604 QNH3006INS 
     TEMPO 2511/2518 06015G25KT 9999 SCT020 BKN050 
     BECMG 2517/2518 04010G18KT 9999 NSW FEW080 QNH3022INS TX12/2421Z TN04/2512Z
       
KGWO 241720Z 2418/2518 19008KT P6SM SCT035 BKN050 
     FM251000 22007KT 4SM RA BR BKN015 OVC025 
     FM251500 26005KT P6SM OVC007 
     FM251700 30009KT P6SM BKN012 OVC020
       
KGYY 242116Z 2421/2518 VRB04KT 6SM -SHRA SCT025 OVC040 
     TEMPO 2421/2423 4SM -RA BR OVC025 
     FM250000 02015G25KT 4SM -RA BR OVC020 
     FM250400 02019G24KT P6SM OVC012 
     FM251100 04017G27KT P6SM BKN018